Time;durP1;ratioP1;P1;durP2;ratioP2;P2;SDS_P1;SDS_P2;PMS_P1;PMS_P2;Temp;Humidity;BMP_temperature;BMP_pressure;BME280_temperature;BME280_humidity;BME280_pressure;Samples;Min_cycle;Max_cycle;Signal;HPM_P1;HPM_P2
2022/05/06 00:00:20;;;;;;;10.73;6.07;;;23.00;49.10;;;;;;5037069;28;20067;-71
2022/05/06 00:02:46;;;;;;;11.52;6.20;;;23.00;48.40;;;;;;5071357;28;20050;-71
2022/05/06 00:05:12;;;;;;;10.32;6.60;;;23.00;48.40;;;;;;5071266;28;20485;-71
2022/05/06 00:07:38;;;;;;;10.65;6.13;;;23.00;48.50;;;;;;5053367;28;20028;-71
2022/05/06 00:10:05;;;;;;;10.75;6.22;;;23.00;48.50;;;;;;5053619;28;20484;-71
2022/05/06 00:12:32;;;;;;;9.82;5.72;;;23.00;48.40;;;;;;5053768;28;20024;-71
2022/05/06 00:14:58;;;;;;;10.07;5.55;;;23.00;48.40;;;;;;5071043;28;20093;-71
2022/05/06 00:17:24;;;;;;;11.30;6.32;;;23.00;49.10;;;;;;5071418;28;20025;-72
2022/05/06 00:19:50;;;;;;;9.88;6.10;;;23.00;48.40;;;;;;5053336;28;20401;-71
2022/05/06 00:22:16;;;;;;;9.57;5.53;;;23.00;48.40;;;;;;5071348;28;20031;-71
2022/05/06 00:24:41;;;;;;;12.38;6.00;;;23.00;48.40;;;;;;5071059;28;20029;-71
2022/05/06 00:27:07;;;;;;;11.70;6.07;;;23.00;48.40;;;;;;5071071;28;20027;-71
2022/05/06 00:29:33;;;;;;;10.65;6.07;;;23.00;48.40;;;;;;5053344;28;20035;-72
2022/05/06 00:32:00;;;;;;;11.10;6.15;;;23.00;48.40;;;;;;5053118;28;20024;-72
2022/05/06 00:34:27;;;;;;;10.05;5.30;;;23.00;48.40;;;;;;5070698;28;20108;-72
2022/05/06 00:36:55;;;;;;;10.52;5.93;;;23.00;48.40;;;;;;5053183;28;20037;-71
2022/05/06 00:39:21;;;;;;;9.50;5.75;;;23.00;48.40;;;;;;5053406;28;20038;-71
2022/05/06 00:41:46;;;;;;;9.18;5.63;;;23.00;48.40;;;;;;5053250;28;20059;-71
2022/05/06 00:44:12;;;;;;;8.77;5.22;;;23.00;48.40;;;;;;5052938;28;20070;-71
2022/05/06 00:46:38;;;;;;;9.88;5.80;;;23.00;48.50;;;;;;5053061;28;20032;-72
2022/05/06 00:49:08;;;;;;;10.45;5.63;;;23.00;48.40;;;;;;5052791;28;20032;-72
2022/05/06 00:51:34;;;;;;;9.73;5.40;;;23.00;48.40;;;;;;5036852;28;20028;-72
2022/05/06 00:54:00;;;;;;;9.00;5.18;;;23.00;48.40;;;;;;5035655;28;20021;-71
2022/05/06 00:56:27;;;;;;;10.40;5.78;;;23.00;48.40;;;;;;5070905;28;20055;-71
2022/05/06 00:58:53;;;;;;;10.10;5.50;;;23.00;48.50;;;;;;5053043;28;20032;-72
2022/05/06 01:01:19;;;;;;;10.05;5.78;;;23.00;48.50;;;;;;5052910;28;20094;-71
2022/05/06 01:03:45;;;;;;;9.80;5.65;;;22.90;48.40;;;;;;5052802;28;20059;-72
2022/05/06 01:06:13;;;;;;;10.88;5.72;;;23.00;48.50;;;;;;5052808;28;20497;-71
2022/05/06 01:08:41;;;;;;;9.90;5.45;;;23.00;48.50;;;;;;5052784;28;20053;-71
2022/05/06 01:11:07;;;;;;;8.77;5.20;;;23.00;48.50;;;;;;5052927;28;20670;-72
2022/05/06 01:13:43;;;;;;;10.02;5.30;;;23.00;48.50;;;;;;5052684;28;20027;-72
2022/05/06 01:16:11;;;;;;;9.57;5.10;;;23.00;48.40;;;;;;5052626;28;20033;-71
2022/05/06 01:18:42;;;;;;;9.38;5.50;;;23.00;48.50;;;;;;5052897;28;20040;-71
2022/05/06 01:21:12;;;;;;;10.27;5.25;;;23.00;48.50;;;;;;5070980;28;20024;-72
2022/05/06 01:23:38;;;;;;;9.93;5.32;;;23.00;48.50;;;;;;5052476;28;20032;-71
2022/05/06 01:26:05;;;;;;;10.02;5.30;;;23.00;48.50;;;;;;5052661;28;20040;-72
2022/05/06 01:28:35;;;;;;;10.70;5.43;;;23.00;48.40;;;;;;5053166;28;20032;-71
2022/05/06 01:31:02;;;;;;;8.50;4.90;;;23.00;48.50;;;;;;5056388;28;20033;-72
2022/05/06 01:33:31;;;;;;;8.85;5.40;;;23.00;48.40;;;;;;5074315;28;20028;-71
2022/05/06 01:36:02;;;;;;;9.35;5.50;;;23.00;48.40;;;;;;5056593;28;20032;-72
2022/05/06 01:38:42;;;;;;;7.88;4.78;;;23.00;48.50;;;;;;5056408;28;20033;-72
2022/05/06 01:41:13;;;;;;;9.57;5.18;;;23.00;48.40;;;;;;5074133;28;20028;-71
2022/05/06 01:43:59;;;;;;;8.65;5.18;;;23.00;48.40;;;;;;5056187;28;20028;-72
2022/05/06 01:46:27;;;;;;;9.15;5.20;;;23.00;48.40;;;;;;5056379;28;20076;-72
2022/05/06 01:48:58;;;;;;;9.60;5.10;;;23.00;48.40;;;;;;5056164;28;20032;-71
2022/05/06 01:51:29;;;;;;;9.32;5.07;;;23.00;49.00;;;;;;5056057;28;20083;-72
2022/05/06 01:53:56;;;;;;;9.27;4.90;;;23.00;48.50;;;;;;5055926;28;20103;-71
2022/05/06 01:56:22;;;;;;;9.00;4.97;;;23.00;48.40;;;;;;5056142;28;20032;-72
2022/05/06 01:58:48;;;;;;;8.73;5.10;;;23.00;48.40;;;;;;5056044;28;20020;-72
2022/05/06 02:01:14;;;;;;;7.95;5.00;;;23.00;48.50;;;;;;5039308;28;20119;-71
2022/05/06 02:06:29;;;;;;;10.05;4.90;;;23.00;48.50;;;;;;5055843;28;20035;-72
2022/05/06 02:09:07;;;;;;;8.20;4.60;;;23.00;48.50;;;;;;5055920;28;20071;-72
2022/05/06 02:11:46;;;;;;;8.10;4.93;;;23.00;48.50;;;;;;5055805;28;20035;-72
2022/05/06 02:14:12;;;;;;;9.88;4.85;;;22.90;48.50;;;;;;5055635;28;20546;-72
2022/05/06 02:16:59;;;;;;;8.05;4.88;;;22.90;48.40;;;;;;5055193;28;20477;-71
2022/05/06 02:19:42;;;;;;;7.93;4.07;;;23.00;48.50;;;;;;5055760;28;20032;-72
2022/05/06 02:22:17;;;;;;;7.88;4.95;;;23.00;48.40;;;;;;5055717;28;20125;-72
2022/05/06 02:24:49;;;;;;;7.95;4.88;;;22.90;48.30;;;;;;5055592;28;20038;-71
2022/05/06 02:27:33;;;;;;;8.43;4.68;;;23.00;49.10;;;;;;5055676;28;20036;-72
2022/05/06 02:35:34;;;;;;;6.90;4.50;;;23.00;48.50;;;;;;5055524;28;20077;-71
2022/05/06 02:38:00;;;;;;;9.23;4.72;;;23.00;48.40;;;;;;5055064;28;20115;-71
2022/05/06 02:40:30;;;;;;;7.45;4.22;;;23.00;48.40;;;;;;5054237;28;20032;-71
2022/05/06 02:42:57;;;;;;;7.85;4.13;;;23.00;48.40;;;;;;5054804;28;20037;-71
2022/05/06 02:45:24;;;;;;;7.30;4.45;;;23.00;48.40;;;;;;5055275;28;20086;-71
2022/05/06 02:47:50;;;;;;;9.32;4.75;;;22.90;48.30;;;;;;5054916;28;20036;-72
2022/05/06 02:50:16;;;;;;;6.70;4.13;;;23.00;48.40;;;;;;5055182;28;20052;-72
2022/05/06 02:52:42;;;;;;;7.65;4.45;;;23.00;48.40;;;;;;5055063;28;20047;-71
2022/05/06 02:55:08;;;;;;;7.65;4.43;;;23.00;48.40;;;;;;5038345;28;20021;-72
2022/05/06 02:57:35;;;;;;;7.55;4.30;;;23.00;48.50;;;;;;5054762;28;20137;-72
2022/05/06 03:00:01;;;;;;;7.25;4.57;;;23.00;48.50;;;;;;5055051;28;20024;-72
2022/05/06 03:02:30;;;;;;;8.00;4.53;;;23.00;48.50;;;;;;5054260;28;20025;-72
2022/05/06 03:05:00;;;;;;;9.00;4.55;;;23.00;48.50;;;;;;5054567;28;20037;-71
2022/05/06 03:07:26;;;;;;;6.55;4.15;;;22.90;48.40;;;;;;5054680;28;20028;-72
2022/05/06 03:09:53;;;;;;;7.57;4.15;;;23.00;48.50;;;;;;5054769;28;20104;-72
2022/05/06 03:12:22;;;;;;;8.63;4.93;;;22.90;48.40;;;;;;5054840;28;20020;-71
2022/05/06 03:14:58;;;;;;;7.03;4.25;;;23.00;48.40;;;;;;5037866;28;20050;-72
2022/05/06 03:17:35;;;;;;;7.55;4.30;;;23.00;48.50;;;;;;5054592;28;20028;-72
2022/05/06 03:20:04;;;;;;;7.20;4.10;;;23.00;48.50;;;;;;5054541;28;20052;-72
2022/05/06 03:22:37;;;;;;;8.13;4.20;;;22.90;48.90;;;;;;5054237;28;20107;-71
2022/05/06 03:25:03;;;;;;;6.50;4.13;;;22.90;48.40;;;;;;5037738;28;20403;-72
2022/05/06 03:30:13;;;;;;;8.27;4.43;;;22.90;48.40;;;;;;5072168;28;20123;-72
2022/05/06 03:32:41;;;;;;;7.20;4.13;;;23.00;48.50;;;;;;5054073;28;20031;-71
2022/05/06 03:35:07;;;;;;;6.93;4.03;;;23.00;48.40;;;;;;5054116;28;20103;-72
2022/05/06 03:37:36;;;;;;;7.40;4.47;;;23.00;48.40;;;;;;5054334;28;20032;-72
2022/05/06 03:40:03;;;;;;;7.40;4.13;;;22.90;48.40;;;;;;5054162;28;20036;-72
2022/05/06 03:42:32;;;;;;;7.75;4.00;;;23.00;48.40;;;;;;5053979;28;20099;-72
2022/05/06 03:44:59;;;;;;;7.13;4.40;;;23.00;48.50;;;;;;5053813;28;20036;-72
2022/05/06 03:47:26;;;;;;;8.43;4.25;;;23.00;48.40;;;;;;5053985;28;20115;-72
2022/05/06 03:51:20;;;;;;;6.53;3.75;;;22.90;49.00;;;;;;5054292;28;20031;-71
2022/05/06 03:52:38;;;;;;;9.15;4.20;;;23.00;48.40;;;;;;5053681;28;20402;-71
2022/05/06 03:55:05;;;;;;;8.05;4.00;;;22.90;48.40;;;;;;5053744;28;20028;-71
2022/05/06 03:57:32;;;;;;;7.18;4.03;;;23.00;48.40;;;;;;5037282;28;20035;-72
2022/05/06 03:59:58;;;;;;;7.97;4.05;;;23.00;48.50;;;;;;5053828;28;20024;-71
2022/05/06 04:02:25;;;;;;;7.30;3.67;;;23.00;48.50;;;;;;5021109;28;20032;-72
2022/05/06 04:04:52;;;;;;;6.40;3.75;;;22.90;48.40;;;;;;5036742;28;20705;-71
2022/05/06 04:07:20;;;;;;;6.63;3.78;;;23.00;48.50;;;;;;5053501;28;20071;-72
2022/05/06 04:09:49;;;;;;;8.35;4.40;;;22.90;48.40;;;;;;5036680;28;20492;-72
2022/05/06 04:12:16;;;;;;;7.13;4.15;;;22.90;48.40;;;;;;5037236;28;20031;-72
2022/05/06 04:14:49;;;;;;;7.35;4.20;;;22.90;48.40;;;;;;5037602;28;20024;-72
2022/05/06 04:17:17;;;;;;;7.05;4.28;;;22.90;48.40;;;;;;5053538;28;20399;-72
2022/05/06 04:25:17;;;;;;;7.03;3.70;;;23.00;48.50;;;;;;5053233;28;20034;-72
2022/05/06 04:27:45;;;;;;;7.93;4.47;;;22.90;48.40;;;;;;5052677;28;20455;-71
2022/05/06 04:30:12;;;;;;;6.90;3.80;;;22.90;48.30;;;;;;5053165;28;20051;-72
2022/05/06 04:32:49;;;;;;;7.70;4.13;;;22.90;48.30;;;;;;5053023;28;20039;-71
2022/05/06 04:35:16;;;;;;;6.35;3.72;;;22.90;48.40;;;;;;5053312;28;20029;-71
2022/05/06 04:37:43;;;;;;;6.80;3.80;;;22.90;48.40;;;;;;5053244;28;20039;-72
2022/05/06 04:40:11;;;;;;;8.10;4.28;;;22.90;48.40;;;;;;5052986;28;20082;-72
2022/05/06 04:42:38;;;;;;;6.90;3.70;;;23.00;48.40;;;;;;5036716;28;20055;-71
2022/05/06 04:45:05;;;;;;;7.10;4.00;;;22.90;48.30;;;;;;5052810;28;20025;-72
2022/05/06 04:47:31;;;;;;;7.13;4.20;;;22.90;48.30;;;;;;5052593;28;20473;-72
2022/05/06 04:49:57;;;;;;;6.45;3.92;;;22.90;48.30;;;;;;5052905;28;20073;-72
2022/05/06 04:52:24;;;;;;;7.05;4.40;;;23.00;48.40;;;;;;5052989;28;20059;-71
2022/05/06 04:54:49;;;;;;;7.57;4.13;;;23.00;48.40;;;;;;5052401;28;20117;-72
2022/05/06 04:57:16;;;;;;;7.57;3.90;;;22.90;48.30;;;;;;5036515;28;20020;-72
2022/05/06 04:59:47;;;;;;;8.07;3.92;;;23.00;48.40;;;;;;5053013;28;20032;-72
2022/05/06 05:02:17;;;;;;;6.13;3.80;;;23.00;48.40;;;;;;5053047;28;20035;-72
2022/05/06 05:04:44;;;;;;;7.10;3.75;;;22.90;48.30;;;;;;5038730;28;20029;-71
2022/05/06 05:07:14;;;;;;;6.75;3.70;;;23.00;48.40;;;;;;5056893;28;20392;-72
2022/05/06 05:09:49;;;;;;;7.18;4.05;;;23.00;48.40;;;;;;5056881;28;20415;-72
2022/05/06 05:12:19;;;;;;;;;;;23.00;48.40;;;;;;5057347;28;20032;-71
2022/05/06 05:14:47;;;;;;;7.32;3.92;;;23.00;48.30;;;;;;5056529;28;19920;-72
2022/05/06 05:17:20;;;;;;;8.02;3.85;;;23.00;48.40;;;;;;5056768;28;20027;-72
2022/05/06 05:19:46;;;;;;;8.10;3.88;;;23.00;48.40;;;;;;5056492;28;20549;-71
2022/05/06 05:22:13;;;;;;;7.68;3.95;;;23.00;48.30;;;;;;5056936;28;20082;-72
2022/05/06 05:24:41;;;;;;;6.40;3.90;;;23.00;48.40;;;;;;5039624;28;20429;-72
2022/05/06 05:27:08;;;;;;;8.55;4.40;;;23.00;48.40;;;;;;5056442;28;20054;-72
2022/05/06 05:29:36;;;;;;;7.90;3.75;;;23.00;48.40;;;;;;5056354;28;20419;-72
2022/05/06 05:32:03;;;;;;;7.68;4.10;;;23.00;48.40;;;;;;5056266;28;20089;-71
2022/05/06 05:34:29;;;;;;;7.45;3.92;;;23.00;48.40;;;;;;5055722;28;20032;-72
2022/05/06 05:36:56;;;;;;;6.22;3.55;;;23.00;48.30;;;;;;5056243;28;20055;-72
2022/05/06 05:39:21;;;;;;;7.25;4.30;;;23.00;48.30;;;;;;5056119;28;20054;-72
2022/05/06 05:41:50;;;;;;;8.67;4.57;;;23.00;48.30;;;;;;5056906;28;20428;-72
2022/05/06 05:49:52;;;;;;;6.85;3.83;;;23.00;48.30;;;;;;5056193;28;20037;-72
2022/05/06 05:52:19;;;;;;;8.13;3.97;;;23.00;48.30;;;;;;5056125;28;20036;-72
2022/05/06 05:54:45;;;;;;;6.05;3.53;;;23.00;48.30;;;;;;5055802;28;20123;-72
2022/05/06 05:57:11;;;;;;;6.40;4.10;;;23.00;48.30;;;;;;5055946;28;20103;-72
2022/05/06 05:59:39;;;;;;;6.95;3.90;;;23.00;48.40;;;;;;5055743;28;20090;-72
2022/05/06 06:02:06;;;;;;;6.70;3.90;;;23.00;48.30;;;;;;5056267;28;20025;-72
2022/05/06 06:04:32;;;;;;;7.10;4.00;;;23.00;48.30;;;;;;5055736;28;20028;-72
2022/05/06 06:07:00;;;;;;;7.90;4.22;;;23.00;48.20;;;;;;5055932;28;20029;-71
2022/05/06 06:09:27;;;;;;;5.95;3.78;;;23.00;48.30;;;;;;5073661;28;20028;-71
2022/05/06 06:11:59;;;;;;;7.53;4.05;;;23.10;48.30;;;;;;5039176;28;20389;-72
2022/05/06 06:14:25;;;;;;;6.85;3.88;;;23.00;48.20;;;;;;5073185;28;20032;-72
2022/05/06 06:16:51;;;;;;;7.20;4.10;;;23.00;48.20;;;;;;5055623;28;20021;-72
2022/05/06 06:19:17;;;;;;;7.40;3.75;;;23.00;48.20;;;;;;5055869;28;20032;-71
2022/05/06 06:21:45;;;;;;;6.90;4.10;;;23.00;48.20;;;;;;5039367;28;20031;-72
2022/05/06 06:24:13;;;;;;;5.80;3.58;;;23.00;48.20;;;;;;5073294;28;20025;-71
2022/05/06 06:26:40;;;;;;;7.47;4.10;;;23.00;48.30;;;;;;5055495;28;20039;-71
2022/05/06 06:29:10;;;;;;;6.78;3.70;;;23.00;48.20;;;;;;5055052;28;20481;-72
2022/05/06 06:31:37;;;;;;;6.78;3.97;;;23.10;48.30;;;;;;5039178;28;20060;-71
2022/05/06 06:34:04;;;;;;;8.07;4.00;;;23.00;48.20;;;;;;5055303;28;20024;-72
2022/05/06 06:36:34;;;;;;;7.00;3.97;;;23.00;48.20;;;;;;5055313;28;20063;-71
2022/05/06 06:39:01;;;;;;;6.07;3.60;;;23.00;48.20;;;;;;5055295;28;20507;-72
2022/05/06 06:41:31;;;;;;;5.90;3.75;;;23.00;48.20;;;;;;5038699;28;20051;-72
2022/05/06 06:43:57;;;;;;;7.00;3.55;;;23.00;48.20;;;;;;5073066;28;20024;-72
2022/05/06 06:46:36;;;;;;;7.40;3.75;;;23.00;48.20;;;;;;5055208;28;20090;-72
2022/05/06 06:49:20;;;;;;;6.40;3.88;;;23.00;48.20;;;;;;5072912;28;20029;-72
2022/05/06 06:52:06;;;;;;;6.40;3.92;;;23.00;48.30;;;;;;5055081;28;20024;-71
2022/05/06 06:54:33;;;;;;;8.23;4.45;;;23.10;48.30;;;;;;5072750;28;20059;-72
2022/05/06 06:56:58;;;;;;;6.70;3.90;;;23.00;48.20;;;;;;5055000;28;20405;-72
2022/05/06 06:59:24;;;;;;;6.60;4.10;;;23.00;48.30;;;;;;5055091;28;20028;-71
2022/05/06 07:01:50;;;;;;;7.40;3.95;;;23.10;48.40;;;;;;5072811;28;20439;-71
2022/05/06 07:04:16;;;;;;;6.03;3.65;;;23.00;48.40;;;;;;5054662;28;20107;-71
2022/05/06 07:12:10;;;;;;;6.82;4.00;;;23.10;48.60;;;;;;5072535;28;20098;-72
2022/05/06 07:14:40;;;;;;;6.68;3.70;;;23.10;48.70;;;;;;5054290;28;20029;-72
2022/05/06 07:17:06;;;;;;;6.70;3.40;;;23.10;48.70;;;;;;5072525;28;20257;-71
2022/05/06 07:19:34;;;;;;;7.10;4.00;;;23.10;48.40;;;;;;5072537;28;20026;-72
2022/05/06 07:22:00;;;;;;;7.35;3.47;;;23.10;48.80;;;;;;5054701;28;20039;-71
2022/05/06 07:24:25;;;;;;;6.68;3.65;;;23.10;48.80;;;;;;5072032;28;20025;-71
2022/05/06 07:26:53;;;;;;;6.60;3.80;;;23.10;48.80;;;;;;5053577;28;20028;-72
2022/05/06 07:29:19;;;;;;;5.68;3.33;;;23.10;48.70;;;;;;5021099;28;20036;-71
2022/05/06 07:31:45;;;;;;;6.40;3.60;;;23.10;48.80;;;;;;5054266;28;20374;-72
2022/05/06 07:34:11;;;;;;;4.75;3.25;;;23.10;48.50;;;;;;5037629;28;20039;-72
2022/05/06 07:36:42;;;;;;;6.63;3.88;;;23.10;48.80;;;;;;5072016;28;20485;-72
2022/05/06 07:39:13;;;;;;;6.72;3.38;;;23.10;49.00;;;;;;5054336;28;20116;-71
2022/05/06 07:41:40;;;;;;;6.40;3.85;;;23.10;49.00;;;;;;5071768;28;20077;-72
2022/05/06 07:44:07;;;;;;;5.45;3.13;;;23.10;49.00;;;;;;5053912;28;20477;-72
2022/05/06 07:46:33;;;;;;;7.82;3.83;;;23.10;49.10;;;;;;5054135;28;20033;-72
2022/05/06 07:48:59;;;;;;;7.85;4.15;;;23.10;49.00;;;;;;5071751;28;20028;-72
2022/05/06 07:51:25;;;;;;;6.22;3.72;;;23.20;48.90;;;;;;5053808;28;20020;-72
2022/05/06 07:53:52;;;;;;;5.85;3.72;;;23.10;49.00;;;;;;5053451;28;20032;-72
2022/05/06 07:56:22;;;;;;;6.00;3.60;;;23.10;49.20;;;;;;5070997;28;20079;-72
2022/05/06 07:58:49;;;;;;;5.93;3.42;;;23.10;49.10;;;;;;5071732;28;20032;-71
2022/05/06 08:01:15;;;;;;;5.65;3.47;;;23.10;49.20;;;;;;5071500;28;20056;-71
2022/05/06 08:06:25;;;;;;;5.82;3.60;;;23.20;49.20;;;;;;5071469;28;20025;-72
2022/05/06 08:08:51;;;;;;;6.57;3.65;;;23.10;49.60;;;;;;5053420;28;20554;-71
2022/05/06 08:11:17;;;;;;;5.78;3.58;;;23.10;49.20;;;;;;5071601;28;20103;-71
2022/05/06 08:13:44;;;;;;;5.72;3.42;;;23.10;49.20;;;;;;5071264;28;20046;-72
2022/05/06 08:16:10;;;;;;;5.63;3.30;;;23.20;49.10;;;;;;5071452;28;20074;-72
2022/05/06 08:18:37;;;;;;;5.82;3.40;;;23.20;49.20;;;;;;5071411;28;20028;-72
2022/05/06 08:21:03;;;;;;;5.90;3.22;;;23.20;49.30;;;;;;5071345;28;20029;-72
2022/05/06 08:23:28;;;;;;;5.82;3.40;;;23.20;49.00;;;;;;5070972;28;20063;-71
2022/05/06 08:25:54;;;;;;;6.22;3.97;;;23.20;49.20;;;;;;5053602;28;20063;-71
2022/05/06 08:28:22;;;;;;;5.97;3.47;;;23.20;49.20;;;;;;5070944;28;20054;-71
2022/05/06 08:30:51;;;;;;;5.82;3.55;;;23.20;49.00;;;;;;5071370;28;20392;-72
2022/05/06 08:33:17;;;;;;;6.82;3.70;;;23.20;49.50;;;;;;5070789;28;20036;-72
2022/05/06 08:35:44;;;;;;;6.28;3.83;;;23.20;49.20;;;;;;5071309;28;20017;-72
2022/05/06 08:38:10;;;;;;;6.40;3.85;;;23.10;49.20;;;;;;5070045;28;20033;-72
2022/05/06 08:40:36;;;;;;;5.18;3.33;;;23.10;49.30;;;;;;5071252;28;20393;-72
2022/05/06 08:43:04;;;;;;;6.18;3.60;;;23.10;49.30;;;;;;5052605;28;20124;-72
2022/05/06 08:51:02;;;;;;;6.35;3.70;;;23.10;49.10;;;;;;5070825;28;20503;-72
2022/05/06 08:53:30;;;;;;;6.13;3.55;;;23.10;49.00;;;;;;5070662;28;20081;-71
2022/05/06 08:55:58;;;;;;;6.95;3.55;;;23.10;49.20;;;;;;5071044;28;20111;-71
2022/05/06 08:58:25;;;;;;;6.00;3.60;;;23.10;49.20;;;;;;5070793;28;20024;-71
2022/05/06 09:01:04;;;;;;;6.75;3.80;;;23.10;49.20;;;;;;5071141;28;20481;-71
2022/05/06 09:03:30;;;;;;;5.30;3.38;;;23.20;49.30;;;;;;5070784;28;20029;-72
2022/05/06 09:05:59;;;;;;;5.93;3.60;;;23.20;49.30;;;;;;5071050;28;20129;-72
2022/05/06 09:08:40;;;;;;;5.15;3.00;;;23.10;49.40;;;;;;5070668;28;20033;-72
2022/05/06 09:11:09;;;;;;;5.05;3.10;;;23.10;49.40;;;;;;5071039;28;20029;-72
2022/05/06 09:13:51;;;;;;;6.80;3.60;;;23.10;49.20;;;;;;5052712;28;20374;-72
2022/05/06 09:19:14;;;;;;;5.43;3.28;;;23.20;49.30;;;;;;5070650;28;20028;-72
2022/05/06 09:21:41;;;;;;;5.65;3.40;;;23.20;49.30;;;;;;5070616;28;20077;-72
2022/05/06 09:24:20;;;;;;;5.07;2.97;;;23.20;49.80;;;;;;5070211;28;20032;-72
2022/05/06 09:26:56;;;;;;;5.10;3.08;;;23.20;49.20;;;;;;5052762;28;20036;-72
2022/05/06 09:29:38;;;;;;;5.50;3.33;;;23.20;49.30;;;;;;5083564;22;20521;-74
2022/05/06 09:32:21;;;;;;;4.28;3.05;;;23.20;49.20;;;;;;5034945;28;20531;-74
2022/05/06 09:34:49;;;;;;;6.60;3.60;;;23.20;49.40;;;;;;5070136;28;20432;-74
2022/05/06 09:37:35;;;;;;;6.15;3.28;;;23.20;49.30;;;;;;5070546;28;20042;-74
2022/05/06 09:40:02;;;;;;;6.80;3.40;;;23.20;49.50;;;;;;5070553;28;20036;-73
2022/05/06 09:42:28;;;;;;;5.05;2.90;;;23.20;49.50;;;;;;5052899;28;20055;-74
2022/05/06 09:44:53;;;;;;;5.40;3.30;;;23.20;49.50;;;;;;5052498;28;20032;-74
2022/05/06 09:47:20;;;;;;;5.88;3.08;;;23.10;49.50;;;;;;5052751;28;20485;-74
2022/05/06 09:49:45;;;;;;;5.50;3.20;;;23.20;49.40;;;;;;5053525;28;20043;-74
2022/05/06 09:52:13;;;;;;;5.97;3.30;;;23.20;49.30;;;;;;5074155;28;20107;-74
2022/05/06 09:54:41;;;;;;;5.32;3.10;;;23.20;49.30;;;;;;5073975;28;20023;-73
2022/05/06 09:57:07;;;;;;;3.97;2.65;;;23.20;49.30;;;;;;5056115;28;20032;-74
2022/05/06 09:59:35;;;;;;;4.50;2.72;;;23.20;49.40;;;;;;5056607;28;20098;-74
2022/05/06 10:02:01;;;;;;;5.32;3.13;;;23.20;49.40;;;;;;5074388;28;20036;-74
2022/05/06 10:04:27;;;;;;;4.75;2.90;;;23.20;49.40;;;;;;5073602;28;20034;-74
2022/05/06 10:06:57;;;;;;;6.20;3.20;;;23.20;49.40;;;;;;5039518;28;20032;-74
2022/05/06 10:09:25;;;;;;;4.53;2.92;;;23.20;49.30;;;;;;5055900;28;20033;-74
2022/05/06 10:11:53;;;;;;;4.70;2.78;;;23.20;49.50;;;;;;5073934;28;20032;-74
2022/05/06 10:14:20;;;;;;;6.60;3.30;;;23.20;49.40;;;;;;5073582;28;20412;-74
2022/05/06 10:16:47;;;;;;;5.05;3.08;;;23.20;49.60;;;;;;5055855;28;20028;-74
2022/05/06 10:19:27;;;;;;;4.90;3.13;;;23.20;49.40;;;;;;5038871;28;20028;-74
2022/05/06 10:21:57;;;;;;;5.03;3.08;;;23.20;49.40;;;;;;5073662;28;20032;-74
2022/05/06 10:24:23;;;;;;;5.68;2.95;;;23.20;49.40;;;;;;5073387;28;20032;-74
2022/05/06 10:26:51;;;;;;;6.13;3.03;;;23.20;49.30;;;;;;5073870;28;20044;-74
2022/05/06 10:32:26;;;;;;;6.10;3.10;;;23.20;49.70;;;;;;5073425;28;20032;-74
2022/05/06 10:34:55;;;;;;;4.38;2.65;;;23.20;49.20;;;;;;5073463;28;20036;-74
2022/05/06 10:37:21;;;;;;;6.22;3.30;;;23.20;49.30;;;;;;5073210;28;20028;-74
2022/05/06 10:39:47;;;;;;;4.55;3.00;;;23.20;49.20;;;;;;5073493;28;20443;-74
2022/05/06 10:42:18;;;;;;;4.65;2.80;;;23.20;49.20;;;;;;5073219;28;20028;-74
2022/05/06 10:44:50;;;;;;;4.05;2.47;;;23.20;49.20;;;;;;5072976;28;20066;-74
2022/05/06 10:47:15;;;;;;;4.70;2.80;;;23.20;49.30;;;;;;5073101;28;20476;-74
2022/05/06 10:49:46;;;;;;;5.30;3.08;;;23.20;49.20;;;;;;5073129;28;20166;-74
2022/05/06 10:52:23;;;;;;;4.85;3.28;;;23.20;49.30;;;;;;5055330;28;20089;-74
2022/05/06 10:54:50;;;;;;;4.60;2.92;;;23.20;49.20;;;;;;5072750;28;20036;-74
2022/05/06 10:57:18;;;;;;;4.60;2.72;;;23.10;49.10;;;;;;5055089;28;20029;-74
2022/05/06 10:59:47;;;;;;;5.35;3.05;;;23.20;49.10;;;;;;5055203;28;20052;-74
2022/05/06 11:02:14;;;;;;;4.47;2.50;;;23.20;49.10;;;;;;5071923;28;20035;-74
2022/05/06 11:04:43;;;;;;;3.97;2.58;;;23.20;49.10;;;;;;5072617;28;20032;-75
2022/05/06 11:07:13;;;;;;;4.23;2.63;;;23.20;49.10;;;;;;5072693;28;20362;-75
2022/05/06 11:09:39;;;;;;;4.28;2.78;;;23.20;49.00;;;;;;5072559;28;20025;-74
2022/05/06 11:12:04;;;;;;;6.07;3.00;;;23.20;49.10;;;;;;5054741;28;20024;-75
2022/05/06 11:14:30;;;;;;;5.07;2.80;;;23.20;49.00;;;;;;5072405;28;20028;-75
2022/05/06 11:17:17;;;;;;;4.15;2.67;;;23.10;49.00;;;;;;5021887;28;20078;-75
2022/05/06 11:19:43;;;;;;;4.70;2.80;;;23.20;49.10;;;;;;5054501;28;20028;-75
2022/05/06 11:22:09;;;;;;;5.28;3.00;;;23.10;49.10;;;;;;5072856;28;20036;-75
2022/05/06 11:24:35;;;;;;;4.68;2.38;;;23.10;49.00;;;;;;5072152;28;20032;-75
2022/05/06 11:27:18;;;;;;;4.20;2.80;;;23.20;49.00;;;;;;5038227;28;20040;-74
2022/05/06 11:29:55;;;;;;;3.70;2.42;;;23.20;49.00;;;;;;5037913;28;20074;-75
2022/05/06 11:32:22;;;;;;;4.85;2.63;;;23.20;49.60;;;;;;5072643;28;20035;-75
2022/05/06 11:34:52;;;;;;;3.92;2.47;;;23.20;49.00;;;;;;5071915;28;20024;-75
2022/05/06 11:37:21;;;;;;;;;;;23.20;49.00;;;;;;5072528;28;20029;-75
2022/05/06 11:39:47;;;;;;;3.40;2.47;;;23.20;49.00;;;;;;5037692;28;19915;-74
2022/05/06 11:42:22;;;;;;;4.47;2.97;;;23.20;49.00;;;;;;5072248;28;20028;-74
2022/05/06 11:48:06;;;;;;;3.53;2.67;;;23.20;49.10;;;;;;4974105;28;20487;-74
2022/05/06 11:50:38;;;;;;;4.60;2.70;;;23.20;49.10;;;;;;5041250;28;20562;-75
2022/05/06 11:53:10;;;;;;;4.25;2.80;;;23.20;49.10;;;;;;5071452;28;20031;-75
2022/05/06 11:55:37;;;;;;;3.78;2.58;;;23.20;49.10;;;;;;5071942;28;20393;-75
2022/05/06 11:58:07;;;;;;;4.03;2.50;;;23.20;49.10;;;;;;5054011;28;20466;-75
2022/05/06 12:00:33;;;;;;;3.65;2.60;;;23.20;49.70;;;;;;5072064;28;20024;-75
2022/05/06 12:03:04;;;;;;;4.22;2.38;;;23.10;49.10;;;;;;5071238;28;20138;-75
2022/05/06 12:05:31;;;;;;;4.22;2.80;;;23.10;49.10;;;;;;5053859;28;20067;-75
2022/05/06 12:07:56;;;;;;;4.40;2.72;;;23.20;49.20;;;;;;5053973;28;20032;-75
2022/05/06 12:10:27;;;;;;;3.78;2.33;;;23.10;49.20;;;;;;5053866;28;20029;-75
2022/05/06 12:12:58;;;;;;;3.97;2.50;;;23.10;49.70;;;;;;5053229;28;20024;-75
2022/05/06 12:15:33;;;;;;;4.20;2.63;;;23.20;49.20;;;;;;5053777;28;20036;-75
2022/05/06 12:18:18;;;;;;;4.22;2.35;;;23.20;49.20;;;;;;5053726;28;20025;-75
2022/05/06 12:20:46;;;;;;;3.35;2.30;;;23.20;49.20;;;;;;5071460;28;20508;-75
2022/05/06 12:23:12;;;;;;;5.35;2.75;;;23.20;49.20;;;;;;5071162;28;20028;-75
2022/05/06 12:25:39;;;;;;;5.13;2.80;;;23.10;49.20;;;;;;5036932;28;20033;-74
2022/05/06 12:28:15;;;;;;;4.53;2.47;;;23.20;49.20;;;;;;5053399;28;20024;-75
2022/05/06 12:30:42;;;;;;;5.00;2.42;;;23.20;49.20;;;;;;5071282;28;20126;-74
2022/05/06 12:33:14;;;;;;;4.78;2.70;;;23.20;49.20;;;;;;5070903;28;20055;-75
2022/05/06 12:36:04;;;;;;;5.40;2.28;;;23.20;49.20;;;;;;5053645;28;20028;-75
2022/05/06 12:38:41;;;;;;;4.72;2.53;;;23.20;49.20;;;;;;5071182;28;20086;-74
2022/05/06 12:41:35;;;;;;;3.70;2.38;;;23.20;49.10;;;;;;5071111;28;20035;-74
2022/05/06 12:44:15;;;;;;;3.80;2.20;;;23.10;49.10;;;;;;5049437;28;20037;-75
2022/05/06 12:46:41;;;;;;;3.22;2.28;;;23.20;49.10;;;;;;5071255;28;20067;-75
2022/05/06 12:51:51;;;;;;;3.67;2.38;;;23.20;49.10;;;;;;5071367;28;20020;-75
2022/05/06 12:54:17;;;;;;;4.03;2.30;;;23.10;49.10;;;;;;5070604;28;20031;-75
2022/05/06 12:56:43;;;;;;;4.53;2.55;;;23.10;49.10;;;;;;5071115;28;20028;-75
2022/05/06 12:59:09;;;;;;;3.85;2.35;;;23.20;49.20;;;;;;5070975;28;20035;-75
2022/05/06 13:01:35;;;;;;;5.35;2.63;;;23.20;49.20;;;;;;5053201;28;20032;-75
2022/05/06 13:04:02;;;;;;;3.15;2.22;;;23.10;49.10;;;;;;5070502;28;20078;-74
2022/05/06 13:06:31;;;;;;;5.25;2.40;;;23.10;49.20;;;;;;5053516;28;20036;-75
2022/05/06 13:08:56;;;;;;;3.53;2.35;;;23.10;49.20;;;;;;5070763;28;20028;-75
2022/05/06 13:11:22;;;;;;;4.53;2.40;;;23.20;49.20;;;;;;5071103;28;20107;-75
2022/05/06 13:13:48;;;;;;;3.45;2.30;;;23.20;49.20;;;;;;5070736;28;20078;-74
2022/05/06 13:16:13;;;;;;;3.30;2.10;;;23.10;49.20;;;;;;5070862;28;20472;-74
2022/05/06 13:18:40;;;;;;;4.82;2.47;;;23.10;49.20;;;;;;5071336;28;20524;-75
2022/05/06 13:21:06;;;;;;;3.00;2.10;;;23.10;49.10;;;;;;5070864;28;20107;-74
2022/05/06 13:23:31;;;;;;;4.00;2.47;;;23.20;49.30;;;;;;5070877;28;20119;-75
2022/05/06 13:25:57;;;;;;;4.18;2.60;;;23.10;49.20;;;;;;5055635;28;20028;-75
2022/05/06 13:28:23;;;;;;;4.07;2.40;;;23.10;49.20;;;;;;5074365;28;20033;-75
2022/05/06 13:30:49;;;;;;;4.13;2.42;;;23.10;49.20;;;;;;5074649;28;20024;-75
2022/05/06 13:33:14;;;;;;;3.83;2.60;;;23.10;49.20;;;;;;5074420;28;20093;-75
2022/05/06 13:35:42;;;;;;;3.17;2.15;;;23.10;49.20;;;;;;5074693;28;20031;-74
2022/05/06 13:38:08;;;;;;;3.38;2.20;;;23.20;49.20;;;;;;5074734;28;20465;-75
2022/05/06 13:40:34;;;;;;;3.97;2.45;;;23.20;49.20;;;;;;5074450;28;20039;-75